sensor_id;sensor_type;location;lat;lon;timestamp;P1;durP1;ratioP1;P2;durP2;ratioP2
60370;SDS011;48550;40.588;49.684;2022-09-09T00:03:55;6.60;;;3.95;;
60370;SDS011;48550;40.588;49.684;2022-09-09T00:06:43;6.18;;;3.60;;
60370;SDS011;48550;40.588;49.684;2022-09-09T00:09:18;10.52;;;4.30;;
60370;SDS011;48550;40.588;49.684;2022-09-09T00:11:48;6.25;;;3.80;;
60370;SDS011;48550;40.588;49.684;2022-09-09T00:17:04;5.25;;;3.50;;
60370;SDS011;48550;40.588;49.684;2022-09-09T00:22:47;7.88;;;3.95;;
60370;SDS011;48550;40.588;49.684;2022-09-09T00:25:19;5.70;;;3.85;;
60370;SDS011;48550;40.588;49.684;2022-09-09T00:28:02;6.82;;;3.95;;
60370;SDS011;48550;40.588;49.684;2022-09-09T00:30:37;6.97;;;3.80;;
60370;SDS011;48550;40.588;49.684;2022-09-09T00:33:10;8.98;;;4.32;;
60370;SDS011;48550;40.588;49.684;2022-09-09T00:35:42;25.63;;;21.27;;
60370;SDS011;48550;40.588;49.684;2022-09-09T00:40:50;7.17;;;4.23;;
60370;SDS011;48550;40.588;49.684;2022-09-09T00:43:24;6.03;;;4.07;;
60370;SDS011;48550;40.588;49.684;2022-09-09T00:57:51;5.82;;;3.75;;
60370;SDS011;48550;40.588;49.684;2022-09-09T01:00:22;6.25;;;4.05;;
60370;SDS011;48550;40.588;49.684;2022-09-09T01:03:22;7.18;;;3.40;;
60370;SDS011;48550;40.588;49.684;2022-09-09T01:08:50;7.75;;;4.15;;
60370;SDS011;48550;40.588;49.684;2022-09-09T01:11:22;7.30;;;4.22;;
60370;SDS011;48550;40.588;49.684;2022-09-09T01:14:10;7.00;;;3.80;;
60370;SDS011;48550;40.588;49.684;2022-09-09T01:16:56;6.32;;;3.70;;
60370;SDS011;48550;40.588;49.684;2022-09-09T01:19:40;6.57;;;3.78;;
60370;SDS011;48550;40.588;49.684;2022-09-09T01:27:59;8.10;;;4.28;;
60370;SDS011;48550;40.588;49.684;2022-09-09T01:30:30;9.60;;;3.80;;
60370;SDS011;48550;40.588;49.684;2022-09-09T01:32:57;9.63;;;3.90;;
60370;SDS011;48550;40.588;49.684;2022-09-09T01:38:03;6.72;;;4.10;;
60370;SDS011;48550;40.588;49.684;2022-09-09T01:40:29;4.72;;;3.30;;
60370;SDS011;48550;40.588;49.684;2022-09-09T01:42:55;5.72;;;3.67;;
60370;SDS011;48550;40.588;49.684;2022-09-09T01:45:21;6.35;;;3.47;;
60370;SDS011;48550;40.588;49.684;2022-09-09T01:47:48;9.02;;;3.70;;
60370;SDS011;48550;40.588;49.684;2022-09-09T01:50:16;6.32;;;3.53;;
60370;SDS011;48550;40.588;49.684;2022-09-09T01:52:43;10.60;;;3.80;;
60370;SDS011;48550;40.588;49.684;2022-09-09T01:55:13;7.97;;;4.15;;
60370;SDS011;48550;40.588;49.684;2022-09-09T01:57:43;9.50;;;3.92;;
60370;SDS011;48550;40.588;49.684;2022-09-09T02:00:14;7.75;;;3.80;;
60370;SDS011;48550;40.588;49.684;2022-09-09T02:02:49;7.47;;;4.00;;
60370;SDS011;48550;40.588;49.684;2022-09-09T02:07:48;10.02;;;4.40;;
60370;SDS011;48550;40.588;49.684;2022-09-09T02:10:20;7.40;;;4.00;;
60370;SDS011;48550;40.588;49.684;2022-09-09T02:13:08;6.32;;;4.15;;
60370;SDS011;48550;40.588;49.684;2022-09-09T02:18:24;8.38;;;5.15;;
60370;SDS011;48550;40.588;49.684;2022-09-09T02:21:00;9.93;;;4.20;;
60370;SDS011;48550;40.588;49.684;2022-09-09T02:23:28;13.45;;;4.82;;
60370;SDS011;48550;40.588;49.684;2022-09-09T02:25:55;6.38;;;4.18;;
60370;SDS011;48550;40.588;49.684;2022-09-09T02:28:23;6.50;;;3.85;;
60370;SDS011;48550;40.588;49.684;2022-09-09T02:30:51;9.63;;;4.03;;
60370;SDS011;48550;40.588;49.684;2022-09-09T02:33:24;7.03;;;4.07;;
60370;SDS011;48550;40.588;49.684;2022-09-09T02:35:53;8.13;;;3.92;;
60370;SDS011;48550;40.588;49.684;2022-09-09T02:38:27;11.50;;;4.78;;
60370;SDS011;48550;40.588;49.684;2022-09-09T02:40:55;13.05;;;6.50;;
60370;SDS011;48550;40.588;49.684;2022-09-09T02:43:20;20.30;;;5.53;;
60370;SDS011;48550;40.588;49.684;2022-09-09T02:48:23;14.30;;;4.40;;
60370;SDS011;48550;40.588;49.684;2022-09-09T02:51:08;16.90;;;5.47;;
60370;SDS011;48550;40.588;49.684;2022-09-09T02:53:54;17.55;;;5.53;;
60370;SDS011;48550;40.588;49.684;2022-09-09T02:56:29;21.67;;;7.50;;
60370;SDS011;48550;40.588;49.684;2022-09-09T02:59:03;20.33;;;9.65;;
60370;SDS011;48550;40.588;49.684;2022-09-09T03:01:29;24.85;;;10.55;;
60370;SDS011;48550;40.588;49.684;2022-09-09T03:03:55;34.33;;;13.50;;
60370;SDS011;48550;40.588;49.684;2022-09-09T03:06:21;41.47;;;14.93;;
60370;SDS011;48550;40.588;49.684;2022-09-09T03:08:46;30.75;;;13.43;;
60370;SDS011;48550;40.588;49.684;2022-09-09T03:11:15;32.40;;;11.13;;
60370;SDS011;48550;40.588;49.684;2022-09-09T03:13:42;26.83;;;10.20;;
60370;SDS011;48550;40.588;49.684;2022-09-09T03:16:07;19.65;;;9.30;;
60370;SDS011;48550;40.588;49.684;2022-09-09T03:18:33;22.50;;;9.38;;
60370;SDS011;48550;40.588;49.684;2022-09-09T03:20:59;24.13;;;9.15;;
60370;SDS011;48550;40.588;49.684;2022-09-09T03:23:25;18.70;;;8.73;;
60370;SDS011;48550;40.588;49.684;2022-09-09T03:25:51;21.42;;;6.88;;
60370;SDS011;48550;40.588;49.684;2022-09-09T03:28:17;18.92;;;6.75;;
60370;SDS011;48550;40.588;49.684;2022-09-09T03:30:43;15.25;;;6.20;;
60370;SDS011;48550;40.588;49.684;2022-09-09T03:33:09;13.85;;;5.18;;
60370;SDS011;48550;40.588;49.684;2022-09-09T03:35:35;18.17;;;5.00;;
60370;SDS011;48550;40.588;49.684;2022-09-09T03:38:01;8.38;;;3.58;;
60370;SDS011;48550;40.588;49.684;2022-09-09T03:40:27;18.67;;;6.07;;
60370;SDS011;48550;40.588;49.684;2022-09-09T03:42:52;14.77;;;5.43;;
60370;SDS011;48550;40.588;49.684;2022-09-09T03:45:18;16.77;;;4.75;;
60370;SDS011;48550;40.588;49.684;2022-09-09T03:47:44;13.27;;;4.30;;
60370;SDS011;48550;40.588;49.684;2022-09-09T03:50:10;10.38;;;3.83;;
60370;SDS011;48550;40.588;49.684;2022-09-09T03:52:39;11.07;;;4.03;;
60370;SDS011;48550;40.588;49.684;2022-09-09T03:55:07;11.07;;;4.28;;
60370;SDS011;48550;40.588;49.684;2022-09-09T03:57:34;7.80;;;3.80;;
60370;SDS011;48550;40.588;49.684;2022-09-09T04:00:04;7.47;;;3.72;;
60370;SDS011;48550;40.588;49.684;2022-09-09T04:02:32;12.80;;;4.43;;
60370;SDS011;48550;40.588;49.684;2022-09-09T04:04:57;9.00;;;3.92;;
60370;SDS011;48550;40.588;49.684;2022-09-09T04:07:24;10.85;;;4.50;;
60370;SDS011;48550;40.588;49.684;2022-09-09T04:09:52;9.43;;;3.58;;
60370;SDS011;48550;40.588;49.684;2022-09-09T04:12:19;10.80;;;3.88;;
60370;SDS011;48550;40.588;49.684;2022-09-09T04:14:46;12.68;;;3.83;;
60370;SDS011;48550;40.588;49.684;2022-09-09T04:17:11;39.35;;;5.70;;
60370;SDS011;48550;40.588;49.684;2022-09-09T04:19:37;7.13;;;2.92;;
60370;SDS011;48550;40.588;49.684;2022-09-09T04:22:03;5.70;;;3.40;;
60370;SDS011;48550;40.588;49.684;2022-09-09T04:24:29;8.95;;;4.05;;
60370;SDS011;48550;40.588;49.684;2022-09-09T04:26:55;9.70;;;3.78;;
60370;SDS011;48550;40.588;49.684;2022-09-09T04:29:20;12.85;;;3.95;;
60370;SDS011;48550;40.588;49.684;2022-09-09T04:31:46;9.07;;;3.50;;
60370;SDS011;48550;40.588;49.684;2022-09-09T04:34:12;9.65;;;3.90;;
60370;SDS011;48550;40.588;49.684;2022-09-09T04:36:37;29.77;;;4.50;;
60370;SDS011;48550;40.588;49.684;2022-09-09T04:39:05;15.00;;;4.05;;
60370;SDS011;48550;40.588;49.684;2022-09-09T04:41:31;10.57;;;3.88;;
60370;SDS011;48550;40.588;49.684;2022-09-09T04:43:57;16.35;;;4.30;;
60370;SDS011;48550;40.588;49.684;2022-09-09T04:46:22;16.20;;;4.72;;
60370;SDS011;48550;40.588;49.684;2022-09-09T04:48:49;12.35;;;4.68;;
60370;SDS011;48550;40.588;49.684;2022-09-09T04:51:16;9.07;;;4.03;;
60370;SDS011;48550;40.588;49.684;2022-09-09T04:53:42;8.02;;;4.18;;
60370;SDS011;48550;40.588;49.684;2022-09-09T04:56:09;5.80;;;3.28;;
60370;SDS011;48550;40.588;49.684;2022-09-09T04:58:36;7.43;;;3.20;;
60370;SDS011;48550;40.588;49.684;2022-09-09T05:01:13;11.70;;;3.70;;
60370;SDS011;48550;40.588;49.684;2022-09-09T05:03:49;8.52;;;4.00;;
60370;SDS011;48550;40.588;49.684;2022-09-09T05:06:18;10.68;;;3.90;;
60370;SDS011;48550;40.588;49.684;2022-09-09T05:08:45;8.30;;;3.65;;
60370;SDS011;48550;40.588;49.684;2022-09-09T05:11:15;7.88;;;3.22;;
60370;SDS011;48550;40.588;49.684;2022-09-09T05:13:45;11.43;;;3.47;;
60370;SDS011;48550;40.588;49.684;2022-09-09T05:16:12;6.00;;;3.50;;
60370;SDS011;48550;40.588;49.684;2022-09-09T05:18:39;7.03;;;3.35;;
60370;SDS011;48550;40.588;49.684;2022-09-09T05:21:06;6.78;;;3.47;;
60370;SDS011;48550;40.588;49.684;2022-09-09T05:23:33;11.90;;;4.82;;
60370;SDS011;48550;40.588;49.684;2022-09-09T05:25:59;9.30;;;4.00;;
60370;SDS011;48550;40.588;49.684;2022-09-09T05:28:26;8.73;;;3.90;;
60370;SDS011;48550;40.588;49.684;2022-09-09T05:30:58;6.60;;;3.30;;
60370;SDS011;48550;40.588;49.684;2022-09-09T05:33:28;5.18;;;3.08;;
60370;SDS011;48550;40.588;49.684;2022-09-09T05:35:55;6.28;;;3.17;;
60370;SDS011;48550;40.588;49.684;2022-09-09T05:38:26;8.88;;;3.55;;
60370;SDS011;48550;40.588;49.684;2022-09-09T05:40:52;10.63;;;3.47;;
60370;SDS011;48550;40.588;49.684;2022-09-09T05:43:19;9.20;;;2.90;;
60370;SDS011;48550;40.588;49.684;2022-09-09T05:45:48;9.13;;;3.08;;
60370;SDS011;48550;40.588;49.684;2022-09-09T05:48:27;11.57;;;3.22;;
60370;SDS011;48550;40.588;49.684;2022-09-09T05:50:53;6.45;;;3.15;;
60370;SDS011;48550;40.588;49.684;2022-09-09T05:53:19;7.85;;;3.30;;
60370;SDS011;48550;40.588;49.684;2022-09-09T05:55:45;7.50;;;3.67;;
60370;SDS011;48550;40.588;49.684;2022-09-09T05:58:11;12.18;;;3.10;;
60370;SDS011;48550;40.588;49.684;2022-09-09T06:00:37;6.97;;;3.75;;
60370;SDS011;48550;40.588;49.684;2022-09-09T06:03:03;13.68;;;4.07;;
60370;SDS011;48550;40.588;49.684;2022-09-09T06:05:29;7.47;;;3.30;;
60370;SDS011;48550;40.588;49.684;2022-09-09T06:07:55;12.70;;;3.50;;
60370;SDS011;48550;40.588;49.684;2022-09-09T06:10:21;8.98;;;3.00;;
60370;SDS011;48550;40.588;49.684;2022-09-09T06:12:47;33.67;;;4.28;;
60370;SDS011;48550;40.588;49.684;2022-09-09T06:15:12;8.63;;;3.33;;
60370;SDS011;48550;40.588;49.684;2022-09-09T06:17:38;5.30;;;2.92;;
60370;SDS011;48550;40.588;49.684;2022-09-09T06:20:04;12.38;;;3.92;;
60370;SDS011;48550;40.588;49.684;2022-09-09T06:22:30;8.85;;;3.22;;
60370;SDS011;48550;40.588;49.684;2022-09-09T06:24:56;7.63;;;2.80;;
60370;SDS011;48550;40.588;49.684;2022-09-09T06:27:22;9.95;;;3.13;;
60370;SDS011;48550;40.588;49.684;2022-09-09T06:29:47;9.52;;;3.10;;
60370;SDS011;48550;40.588;49.684;2022-09-09T06:32:13;8.48;;;3.15;;
60370;SDS011;48550;40.588;49.684;2022-09-09T06:34:39;18.08;;;3.53;;
60370;SDS011;48550;40.588;49.684;2022-09-09T06:37:05;12.07;;;3.60;;
60370;SDS011;48550;40.588;49.684;2022-09-09T06:39:31;8.65;;;3.78;;
60370;SDS011;48550;40.588;49.684;2022-09-09T06:41:57;9.00;;;3.58;;
60370;SDS011;48550;40.588;49.684;2022-09-09T06:44:23;9.10;;;3.50;;
60370;SDS011;48550;40.588;49.684;2022-09-09T06:46:52;5.85;;;3.15;;
60370;SDS011;48550;40.588;49.684;2022-09-09T06:49:17;9.02;;;3.55;;
60370;SDS011;48550;40.588;49.684;2022-09-09T06:51:43;7.30;;;3.83;;
60370;SDS011;48550;40.588;49.684;2022-09-09T06:54:10;8.52;;;3.33;;
60370;SDS011;48550;40.588;49.684;2022-09-09T06:56:37;8.02;;;3.10;;
60370;SDS011;48550;40.588;49.684;2022-09-09T06:59:07;11.30;;;3.38;;
60370;SDS011;48550;40.588;49.684;2022-09-09T07:01:35;34.40;;;4.03;;
60370;SDS011;48550;40.588;49.684;2022-09-09T07:04:03;8.15;;;3.53;;
60370;SDS011;48550;40.588;49.684;2022-09-09T07:06:33;7.05;;;3.30;;
60370;SDS011;48550;40.588;49.684;2022-09-09T07:09:01;7.65;;;3.35;;
60370;SDS011;48550;40.588;49.684;2022-09-09T07:11:30;11.35;;;3.83;;
60370;SDS011;48550;40.588;49.684;2022-09-09T07:14:02;5.75;;;3.17;;
60370;SDS011;48550;40.588;49.684;2022-09-09T07:16:28;9.35;;;3.50;;
60370;SDS011;48550;40.588;49.684;2022-09-09T07:18:56;7.18;;;3.55;;
60370;SDS011;48550;40.588;49.684;2022-09-09T07:21:25;5.45;;;2.90;;
60370;SDS011;48550;40.588;49.684;2022-09-09T07:23:53;7.82;;;3.20;;
60370;SDS011;48550;40.588;49.684;2022-09-09T07:26:20;8.82;;;3.50;;
60370;SDS011;48550;40.588;49.684;2022-09-09T07:28:48;9.05;;;3.80;;
60370;SDS011;48550;40.588;49.684;2022-09-09T07:31:15;12.02;;;3.50;;
60370;SDS011;48550;40.588;49.684;2022-09-09T07:33:46;7.50;;;3.50;;
60370;SDS011;48550;40.588;49.684;2022-09-09T07:36:17;7.72;;;3.47;;
60370;SDS011;48550;40.588;49.684;2022-09-09T07:38:49;8.38;;;3.53;;
60370;SDS011;48550;40.588;49.684;2022-09-09T07:41:33;6.90;;;3.15;;
60370;SDS011;48550;40.588;49.684;2022-09-09T07:44:08;6.18;;;3.58;;
60370;SDS011;48550;40.588;49.684;2022-09-09T07:46:37;7.07;;;3.63;;
60370;SDS011;48550;40.588;49.684;2022-09-09T07:49:07;11.25;;;3.47;;
60370;SDS011;48550;40.588;49.684;2022-09-09T07:51:35;8.45;;;3.75;;
60370;SDS011;48550;40.588;49.684;2022-09-09T07:54:04;8.35;;;3.75;;
60370;SDS011;48550;40.588;49.684;2022-09-09T07:56:31;6.82;;;3.50;;
60370;SDS011;48550;40.588;49.684;2022-09-09T07:58:57;9.85;;;3.70;;
60370;SDS011;48550;40.588;49.684;2022-09-09T08:01:31;10.35;;;3.90;;
60370;SDS011;48550;40.588;49.684;2022-09-09T08:04:06;7.70;;;3.67;;
60370;SDS011;48550;40.588;49.684;2022-09-09T08:06:37;7.77;;;3.97;;
60370;SDS011;48550;40.588;49.684;2022-09-09T08:09:06;7.13;;;3.88;;
60370;SDS011;48550;40.588;49.684;2022-09-09T08:11:32;9.02;;;3.70;;
60370;SDS011;48550;40.588;49.684;2022-09-09T08:13:59;8.85;;;3.50;;
60370;SDS011;48550;40.588;49.684;2022-09-09T08:16:29;8.98;;;3.60;;
60370;SDS011;48550;40.588;49.684;2022-09-09T08:18:56;7.50;;;3.75;;
60370;SDS011;48550;40.588;49.684;2022-09-09T08:21:24;12.70;;;4.07;;
60370;SDS011;48550;40.588;49.684;2022-09-09T08:23:55;12.03;;;4.00;;
60370;SDS011;48550;40.588;49.684;2022-09-09T08:26:23;6.95;;;3.42;;
60370;SDS011;48550;40.588;49.684;2022-09-09T08:28:52;8.23;;;3.90;;
60370;SDS011;48550;40.588;49.684;2022-09-09T08:31:21;7.18;;;3.35;;
60370;SDS011;48550;40.588;49.684;2022-09-09T08:33:53;7.50;;;3.90;;
60370;SDS011;48550;40.588;49.684;2022-09-09T08:36:21;8.10;;;3.78;;
60370;SDS011;48550;40.588;49.684;2022-09-09T08:38:50;8.63;;;3.72;;
60370;SDS011;48550;40.588;49.684;2022-09-09T08:44:10;7.55;;;3.35;;
60370;SDS011;48550;40.588;49.684;2022-09-09T08:55:08;5.68;;;3.35;;
60370;SDS011;48550;40.588;49.684;2022-09-09T08:57:55;8.10;;;3.50;;
60370;SDS011;48550;40.588;49.684;2022-09-09T09:00:25;8.35;;;3.45;;
60370;SDS011;48550;40.588;49.684;2022-09-09T09:03:19;10.88;;;4.43;;
60370;SDS011;48550;40.588;49.684;2022-09-09T09:06:10;8.20;;;3.83;;
60370;SDS011;48550;40.588;49.684;2022-09-09T09:09:08;8.15;;;3.72;;
60370;SDS011;48550;40.588;49.684;2022-09-09T09:11:46;11.20;;;3.60;;
60370;SDS011;48550;40.588;49.684;2022-09-09T09:14:22;5.85;;;3.97;;
60370;SDS011;48550;40.588;49.684;2022-09-09T09:16:53;11.15;;;3.63;;
60370;SDS011;48550;40.588;49.684;2022-09-09T09:19:23;9.13;;;4.32;;
60370;SDS011;48550;40.588;49.684;2022-09-09T09:21:54;9.20;;;3.80;;
60370;SDS011;48550;40.588;49.684;2022-09-09T09:27:34;7.10;;;3.63;;
60370;SDS011;48550;40.588;49.684;2022-09-09T09:30:10;6.30;;;3.60;;
60370;SDS011;48550;40.588;49.684;2022-09-09T09:32:38;7.53;;;3.47;;
60370;SDS011;48550;40.588;49.684;2022-09-09T09:35:09;7.75;;;3.50;;
60370;SDS011;48550;40.588;49.684;2022-09-09T09:37:37;9.17;;;3.80;;
60370;SDS011;48550;40.588;49.684;2022-09-09T09:40:18;11.15;;;3.80;;
60370;SDS011;48550;40.588;49.684;2022-09-09T09:42:52;9.52;;;4.00;;
60370;SDS011;48550;40.588;49.684;2022-09-09T09:48:03;8.80;;;3.50;;
60370;SDS011;48550;40.588;49.684;2022-09-09T09:50:31;10.55;;;3.40;;
60370;SDS011;48550;40.588;49.684;2022-09-09T09:52:59;5.95;;;3.22;;
60370;SDS011;48550;40.588;49.684;2022-09-09T09:55:30;7.60;;;3.22;;
60370;SDS011;48550;40.588;49.684;2022-09-09T09:58:05;7.03;;;3.33;;
60370;SDS011;48550;40.588;49.684;2022-09-09T10:00:46;9.13;;;3.80;;
60370;SDS011;48550;40.588;49.684;2022-09-09T10:03:27;12.25;;;3.67;;
60370;SDS011;48550;40.588;49.684;2022-09-09T10:05:55;6.47;;;3.90;;
60370;SDS011;48550;40.588;49.684;2022-09-09T10:08:26;8.40;;;3.72;;
60370;SDS011;48550;40.588;49.684;2022-09-09T10:11:05;11.02;;;3.53;;
60370;SDS011;48550;40.588;49.684;2022-09-09T10:13:53;18.10;;;8.25;;
60370;SDS011;48550;40.588;49.684;2022-09-09T10:19:33;6.40;;;3.45;;
60370;SDS011;48550;40.588;49.684;2022-09-09T10:25:04;7.22;;;3.60;;
60370;SDS011;48550;40.588;49.684;2022-09-09T10:30:31;7.63;;;3.63;;
60370;SDS011;48550;40.588;49.684;2022-09-09T10:36:07;7.22;;;3.45;;
60370;SDS011;48550;40.588;49.684;2022-09-09T10:38:40;8.00;;;3.60;;
60370;SDS011;48550;40.588;49.684;2022-09-09T10:55:19;9.52;;;3.83;;
60370;SDS011;48550;40.588;49.684;2022-09-09T10:57:48;9.88;;;4.00;;
60370;SDS011;48550;40.588;49.684;2022-09-09T11:00:21;7.13;;;3.80;;
60370;SDS011;48550;40.588;49.684;2022-09-09T11:02:49;9.25;;;4.00;;
60370;SDS011;48550;40.588;49.684;2022-09-09T11:05:31;8.63;;;4.30;;
60370;SDS011;48550;40.588;49.684;2022-09-09T11:08:21;8.63;;;3.92;;
60370;SDS011;48550;40.588;49.684;2022-09-09T11:16:45;9.40;;;3.67;;
60370;SDS011;48550;40.588;49.684;2022-09-09T11:22:07;14.63;;;3.97;;
60370;SDS011;48550;40.588;49.684;2022-09-09T11:24:49;11.75;;;3.40;;
60370;SDS011;48550;40.588;49.684;2022-09-09T11:27:37;8.93;;;4.43;;
60370;SDS011;48550;40.588;49.684;2022-09-09T11:30:21;10.00;;;5.47;;
60370;SDS011;48550;40.588;49.684;2022-09-09T11:35:57;9.93;;;4.00;;
60370;SDS011;48550;40.588;49.684;2022-09-09T11:41:05;8.65;;;3.50;;
60370;SDS011;48550;40.588;49.684;2022-09-09T11:43:53;7.65;;;3.63;;
60370;SDS011;48550;40.588;49.684;2022-09-09T11:46:32;7.22;;;3.15;;
60370;SDS011;48550;40.588;49.684;2022-09-09T11:49:04;15.02;;;3.88;;
60370;SDS011;48550;40.588;49.684;2022-09-09T11:51:32;11.18;;;5.07;;
60370;SDS011;48550;40.588;49.684;2022-09-09T11:56:48;12.55;;;4.40;;
60370;SDS011;48550;40.588;49.684;2022-09-09T11:59:24;13.65;;;6.30;;
60370;SDS011;48550;40.588;49.684;2022-09-09T12:05:00;9.13;;;3.95;;
60370;SDS011;48550;40.588;49.684;2022-09-09T12:07:41;8.40;;;4.10;;
60370;SDS011;48550;40.588;49.684;2022-09-09T12:12:50;11.03;;;3.57;;
60370;SDS011;48550;40.588;49.684;2022-09-09T12:15:23;8.32;;;3.97;;
60370;SDS011;48550;40.588;49.684;2022-09-09T12:17:54;8.57;;;3.60;;
60370;SDS011;48550;40.588;49.684;2022-09-09T12:20:33;7.93;;;3.53;;
60370;SDS011;48550;40.588;49.684;2022-09-09T12:23:08;8.23;;;3.80;;
60370;SDS011;48550;40.588;49.684;2022-09-09T12:28:46;7.07;;;3.40;;
60370;SDS011;48550;40.588;49.684;2022-09-09T12:31:27;11.38;;;3.65;;
60370;SDS011;48550;40.588;49.684;2022-09-09T12:34:06;10.75;;;3.38;;
60370;SDS011;48550;40.588;49.684;2022-09-09T12:36:36;7.78;;;3.85;;
60370;SDS011;48550;40.588;49.684;2022-09-09T12:42:20;7.50;;;3.70;;
60370;SDS011;48550;40.588;49.684;2022-09-09T12:44:54;7.78;;;3.70;;
60370;SDS011;48550;40.588;49.684;2022-09-09T12:50:23;11.70;;;4.30;;
60370;SDS011;48550;40.588;49.684;2022-09-09T12:52:52;10.25;;;5.05;;
60370;SDS011;48550;40.588;49.684;2022-09-09T12:55:21;7.55;;;3.45;;
60370;SDS011;48550;40.588;49.684;2022-09-09T12:57:50;7.15;;;3.53;;
60370;SDS011;48550;40.588;49.684;2022-09-09T13:00:22;11.95;;;3.80;;
60370;SDS011;48550;40.588;49.684;2022-09-09T13:05:25;6.95;;;3.53;;
60370;SDS011;48550;40.588;49.684;2022-09-09T13:08:14;26.95;;;3.85;;
60370;SDS011;48550;40.588;49.684;2022-09-09T13:10:40;8.15;;;3.97;;
60370;SDS011;48550;40.588;49.684;2022-09-09T13:13:13;6.75;;;3.38;;
60370;SDS011;48550;40.588;49.684;2022-09-09T13:15:52;13.52;;;3.20;;
60370;SDS011;48550;40.588;49.684;2022-09-09T13:18:24;12.32;;;3.40;;
60370;SDS011;48550;40.588;49.684;2022-09-09T13:20:53;6.55;;;3.28;;
60370;SDS011;48550;40.588;49.684;2022-09-09T13:23:21;14.73;;;3.67;;
60370;SDS011;48550;40.588;49.684;2022-09-09T13:25:54;17.70;;;4.55;;
60370;SDS011;48550;40.588;49.684;2022-09-09T13:28:22;8.25;;;3.53;;
60370;SDS011;48550;40.588;49.684;2022-09-09T13:30:59;8.73;;;3.55;;
60370;SDS011;48550;40.588;49.684;2022-09-09T13:33:33;6.18;;;3.05;;
60370;SDS011;48550;40.588;49.684;2022-09-09T13:36:05;7.05;;;3.67;;
60370;SDS011;48550;40.588;49.684;2022-09-09T13:38:36;16.83;;;3.60;;
60370;SDS011;48550;40.588;49.684;2022-09-09T13:41:05;7.82;;;3.30;;
60370;SDS011;48550;40.588;49.684;2022-09-09T13:43:36;14.20;;;4.00;;
60370;SDS011;48550;40.588;49.684;2022-09-09T13:46:28;6.60;;;3.30;;
60370;SDS011;48550;40.588;49.684;2022-09-09T13:49:19;7.82;;;2.90;;
60370;SDS011;48550;40.588;49.684;2022-09-09T13:51:46;7.13;;;3.13;;
60370;SDS011;48550;40.588;49.684;2022-09-09T13:54:16;9.05;;;3.33;;
60370;SDS011;48550;40.588;49.684;2022-09-09T13:56:43;7.82;;;3.95;;
60370;SDS011;48550;40.588;49.684;2022-09-09T13:59:16;7.45;;;2.70;;
60370;SDS011;48550;40.588;49.684;2022-09-09T14:01:45;30.48;;;4.03;;
60370;SDS011;48550;40.588;49.684;2022-09-09T14:04:11;5.32;;;3.22;;
60370;SDS011;48550;40.588;49.684;2022-09-09T14:06:37;32.75;;;4.13;;
60370;SDS011;48550;40.588;49.684;2022-09-09T14:09:05;10.20;;;3.28;;
60370;SDS011;48550;40.588;49.684;2022-09-09T14:11:32;6.60;;;2.80;;
60370;SDS011;48550;40.588;49.684;2022-09-09T14:13:57;17.33;;;3.35;;
60370;SDS011;48550;40.588;49.684;2022-09-09T14:16:23;8.23;;;2.95;;
60370;SDS011;48550;40.588;49.684;2022-09-09T14:18:49;68.60;;;5.13;;
60370;SDS011;48550;40.588;49.684;2022-09-09T14:21:15;18.15;;;3.13;;
60370;SDS011;48550;40.588;49.684;2022-09-09T14:23:41;10.05;;;2.70;;
60370;SDS011;48550;40.588;49.684;2022-09-09T14:26:07;18.63;;;3.10;;
60370;SDS011;48550;40.588;49.684;2022-09-09T14:28:34;13.68;;;2.92;;
60370;SDS011;48550;40.588;49.684;2022-09-09T14:31:02;5.50;;;2.67;;
60370;SDS011;48550;40.588;49.684;2022-09-09T14:33:32;5.47;;;3.10;;
60370;SDS011;48550;40.588;49.684;2022-09-09T14:36:02;14.27;;;3.10;;
60370;SDS011;48550;40.588;49.684;2022-09-09T14:38:29;17.42;;;3.58;;
60370;SDS011;48550;40.588;49.684;2022-09-09T14:40:59;6.28;;;3.00;;
60370;SDS011;48550;40.588;49.684;2022-09-09T14:43:28;23.02;;;3.33;;
60370;SDS011;48550;40.588;49.684;2022-09-09T14:45:55;5.78;;;3.33;;
60370;SDS011;48550;40.588;49.684;2022-09-09T14:48:21;6.60;;;3.28;;
60370;SDS011;48550;40.588;49.684;2022-09-09T14:50:47;7.22;;;3.25;;
60370;SDS011;48550;40.588;49.684;2022-09-09T14:53:15;7.85;;;3.72;;
60370;SDS011;48550;40.588;49.684;2022-09-09T14:55:41;8.23;;;3.38;;
60370;SDS011;48550;40.588;49.684;2022-09-09T14:58:07;10.05;;;4.28;;
60370;SDS011;48550;40.588;49.684;2022-09-09T15:00:33;8.07;;;3.67;;
60370;SDS011;48550;40.588;49.684;2022-09-09T15:02:59;9.65;;;4.43;;
60370;SDS011;48550;40.588;49.684;2022-09-09T15:05:25;9.18;;;4.07;;
60370;SDS011;48550;40.588;49.684;2022-09-09T15:07:50;11.30;;;4.00;;
60370;SDS011;48550;40.588;49.684;2022-09-09T15:10:16;7.40;;;4.40;;
60370;SDS011;48550;40.588;49.684;2022-09-09T15:12:45;9.60;;;4.95;;
60370;SDS011;48550;40.588;49.684;2022-09-09T15:15:11;12.18;;;4.75;;
60370;SDS011;48550;40.588;49.684;2022-09-09T15:17:37;7.43;;;4.15;;
60370;SDS011;48550;40.588;49.684;2022-09-09T15:20:03;7.85;;;3.92;;
60370;SDS011;48550;40.588;49.684;2022-09-09T15:22:31;13.75;;;3.83;;
60370;SDS011;48550;40.588;49.684;2022-09-09T15:24:57;8.93;;;4.32;;
60370;SDS011;48550;40.588;49.684;2022-09-09T15:27:23;9.18;;;4.80;;
60370;SDS011;48550;40.588;49.684;2022-09-09T15:29:49;8.27;;;3.97;;
60370;SDS011;48550;40.588;49.684;2022-09-09T15:32:16;7.97;;;3.97;;
60370;SDS011;48550;40.588;49.684;2022-09-09T15:34:42;9.80;;;3.78;;
60370;SDS011;48550;40.588;49.684;2022-09-09T15:37:11;11.10;;;5.03;;
60370;SDS011;48550;40.588;49.684;2022-09-09T15:39:40;9.48;;;4.50;;
60370;SDS011;48550;40.588;49.684;2022-09-09T15:42:06;14.90;;;4.43;;
60370;SDS011;48550;40.588;49.684;2022-09-09T15:44:39;6.85;;;3.72;;
60370;SDS011;48550;40.588;49.684;2022-09-09T15:47:07;5.80;;;3.47;;
60370;SDS011;48550;40.588;49.684;2022-09-09T15:49:37;29.02;;;4.90;;
60370;SDS011;48550;40.588;49.684;2022-09-09T15:52:03;25.90;;;5.18;;
60370;SDS011;48550;40.588;49.684;2022-09-09T15:54:33;21.30;;;4.35;;
60370;SDS011;48550;40.588;49.684;2022-09-09T15:57:01;11.05;;;4.43;;
60370;SDS011;48550;40.588;49.684;2022-09-09T15:59:29;27.45;;;3.92;;
60370;SDS011;48550;40.588;49.684;2022-09-09T16:01:57;9.32;;;3.10;;
60370;SDS011;48550;40.588;49.684;2022-09-09T16:04:25;15.60;;;3.90;;
60370;SDS011;48550;40.588;49.684;2022-09-09T16:06:55;15.65;;;3.83;;
60370;SDS011;48550;40.588;49.684;2022-09-09T16:09:23;7.07;;;3.67;;
60370;SDS011;48550;40.588;49.684;2022-09-09T16:11:49;71.15;;;5.95;;
60370;SDS011;48550;40.588;49.684;2022-09-09T16:14:17;11.50;;;3.35;;
60370;SDS011;48550;40.588;49.684;2022-09-09T16:16:42;7.88;;;3.42;;
60370;SDS011;48550;40.588;49.684;2022-09-09T16:19:09;17.73;;;3.92;;
60370;SDS011;48550;40.588;49.684;2022-09-09T16:21:41;33.28;;;4.80;;
60370;SDS011;48550;40.588;49.684;2022-09-09T16:24:09;15.45;;;4.32;;
60370;SDS011;48550;40.588;49.684;2022-09-09T16:26:41;31.95;;;5.18;;
60370;SDS011;48550;40.588;49.684;2022-09-09T16:29:10;16.85;;;4.38;;
60370;SDS011;48550;40.588;49.684;2022-09-09T16:31:39;15.23;;;4.28;;
60370;SDS011;48550;40.588;49.684;2022-09-09T16:34:05;9.90;;;4.25;;
60370;SDS011;48550;40.588;49.684;2022-09-09T16:36:33;8.30;;;4.28;;
60370;SDS011;48550;40.588;49.684;2022-09-09T16:39:02;9.93;;;3.47;;
60370;SDS011;48550;40.588;49.684;2022-09-09T16:44:51;5.63;;;3.33;;
60370;SDS011;48550;40.588;49.684;2022-09-09T16:47:17;17.58;;;3.95;;
60370;SDS011;48550;40.588;49.684;2022-09-09T16:49:43;17.90;;;4.20;;